sensor_id;sensor_type;location;lat;lon;timestamp;P1;durP1;ratioP1;P2;durP2;ratioP2
1358;SDS011;673;48.098;14.422;2024-03-02T00:00:50;146.83;;;94.60;;
1358;SDS011;673;48.098;14.422;2024-03-02T00:03:17;182.63;;;164.50;;
1358;SDS011;673;48.098;14.422;2024-03-02T00:05:48;202.90;;;184.03;;
1358;SDS011;673;48.098;14.422;2024-03-02T00:08:19;188.70;;;170.43;;
1358;SDS011;673;48.098;14.422;2024-03-02T00:10:50;206.33;;;187.83;;
1358;SDS011;673;48.098;14.422;2024-03-02T00:13:19;270.70;;;249.90;;
1358;SDS011;673;48.098;14.422;2024-03-02T00:15:46;303.80;;;282.47;;
1358;SDS011;673;48.098;14.422;2024-03-02T00:18:17;198.87;;;180.73;;
1358;SDS011;673;48.098;14.422;2024-03-02T00:20:45;325.93;;;304.20;;
1358;SDS011;673;48.098;14.422;2024-03-02T00:23:14;455.57;;;430.57;;
1358;SDS011;673;48.098;14.422;2024-03-02T00:25:44;487.57;;;459.93;;
1358;SDS011;673;48.098;14.422;2024-03-02T00:28:14;479.20;;;453.30;;
1358;SDS011;673;48.098;14.422;2024-03-02T00:33:33;486.50;;;459.40;;
1358;SDS011;673;48.098;14.422;2024-03-02T00:36:01;479.87;;;453.57;;
1358;SDS011;673;48.098;14.422;2024-03-02T00:38:30;484.93;;;457.83;;
1358;SDS011;673;48.098;14.422;2024-03-02T00:41:00;483.93;;;455.80;;
1358;SDS011;673;48.098;14.422;2024-03-02T00:43:45;257.53;;;236.03;;
1358;SDS011;673;48.098;14.422;2024-03-02T00:46:15;160.57;;;121.70;;
1358;SDS011;673;48.098;14.422;2024-03-02T00:51:29;144.90;;;90.17;;
1358;SDS011;673;48.098;14.422;2024-03-02T00:53:58;147.10;;;87.80;;
1358;SDS011;673;48.098;14.422;2024-03-02T00:56:27;148.23;;;82.30;;
1358;SDS011;673;48.098;14.422;2024-03-02T00:58:54;143.17;;;90.00;;
1358;SDS011;673;48.098;14.422;2024-03-02T01:01:22;142.97;;;90.20;;
1358;SDS011;673;48.098;14.422;2024-03-02T01:03:49;145.73;;;98.87;;
1358;SDS011;673;48.098;14.422;2024-03-02T01:06:16;143.37;;;78.03;;
1358;SDS011;673;48.098;14.422;2024-03-02T01:08:44;157.70;;;101.47;;
1358;SDS011;673;48.098;14.422;2024-03-02T01:11:11;159.87;;;114.33;;
1358;SDS011;673;48.098;14.422;2024-03-02T01:13:39;157.47;;;140.53;;
1358;SDS011;673;48.098;14.422;2024-03-02T01:16:06;256.27;;;236.07;;
1358;SDS011;673;48.098;14.422;2024-03-02T01:18:33;259.13;;;239.10;;
1358;SDS011;673;48.098;14.422;2024-03-02T01:21:01;225.07;;;203.47;;
1358;SDS011;673;48.098;14.422;2024-03-02T01:23:28;214.30;;;196.47;;
1358;SDS011;673;48.098;14.422;2024-03-02T01:25:55;148.83;;;115.37;;
1358;SDS011;673;48.098;14.422;2024-03-02T01:28:22;161.67;;;141.03;;
1358;SDS011;673;48.098;14.422;2024-03-02T01:30:50;150.73;;;93.83;;
1358;SDS011;673;48.098;14.422;2024-03-02T01:33:17;159.37;;;123.23;;
1358;SDS011;673;48.098;14.422;2024-03-02T01:35:45;158.60;;;98.80;;
1358;SDS011;673;48.098;14.422;2024-03-02T01:38:12;138.83;;;70.77;;
1358;SDS011;673;48.098;14.422;2024-03-02T01:40:39;134.50;;;69.13;;
1358;SDS011;673;48.098;14.422;2024-03-02T01:43:06;135.20;;;74.27;;
1358;SDS011;673;48.098;14.422;2024-03-02T01:45:34;140.47;;;71.37;;
1358;SDS011;673;48.098;14.422;2024-03-02T01:48:04;147.17;;;82.90;;
1358;SDS011;673;48.098;14.422;2024-03-02T01:50:32;136.40;;;85.50;;
1358;SDS011;673;48.098;14.422;2024-03-02T01:52:59;153.20;;;100.30;;
1358;SDS011;673;48.098;14.422;2024-03-02T01:55:27;143.60;;;83.40;;
1358;SDS011;673;48.098;14.422;2024-03-02T01:57:55;149.43;;;79.80;;
1358;SDS011;673;48.098;14.422;2024-03-02T02:00:23;159.83;;;76.93;;
1358;SDS011;673;48.098;14.422;2024-03-02T02:02:51;146.13;;;72.50;;
1358;SDS011;673;48.098;14.422;2024-03-02T02:05:20;143.60;;;97.73;;
1358;SDS011;673;48.098;14.422;2024-03-02T02:07:47;158.93;;;109.90;;
1358;SDS011;673;48.098;14.422;2024-03-02T02:10:14;136.57;;;94.90;;
1358;SDS011;673;48.098;14.422;2024-03-02T02:12:41;158.60;;;130.60;;
1358;SDS011;673;48.098;14.422;2024-03-02T02:15:21;142.03;;;77.87;;
1358;SDS011;673;48.098;14.422;2024-03-02T02:17:51;144.20;;;81.77;;
1358;SDS011;673;48.098;14.422;2024-03-02T02:20:20;138.73;;;69.17;;
1358;SDS011;673;48.098;14.422;2024-03-02T02:22:55;145.20;;;68.30;;
1358;SDS011;673;48.098;14.422;2024-03-02T02:25:23;134.03;;;74.93;;
1358;SDS011;673;48.098;14.422;2024-03-02T02:27:50;144.70;;;73.33;;
1358;SDS011;673;48.098;14.422;2024-03-02T02:30:20;155.87;;;78.13;;
1358;SDS011;673;48.098;14.422;2024-03-02T02:32:48;140.43;;;76.83;;
1358;SDS011;673;48.098;14.422;2024-03-02T02:35:15;146.67;;;77.23;;
1358;SDS011;673;48.098;14.422;2024-03-02T02:37:42;144.93;;;82.83;;
1358;SDS011;673;48.098;14.422;2024-03-02T02:40:12;138.53;;;90.23;;
1358;SDS011;673;48.098;14.422;2024-03-02T02:42:39;258.43;;;237.80;;
1358;SDS011;673;48.098;14.422;2024-03-02T02:45:06;139.87;;;91.20;;
1358;SDS011;673;48.098;14.422;2024-03-02T02:47:34;173.90;;;155.80;;
1358;SDS011;673;48.098;14.422;2024-03-02T02:50:01;149.60;;;110.57;;
1358;SDS011;673;48.098;14.422;2024-03-02T02:52:32;150.63;;;86.43;;
1358;SDS011;673;48.098;14.422;2024-03-02T02:55:01;141.77;;;70.67;;
1358;SDS011;673;48.098;14.422;2024-03-02T02:57:33;136.30;;;75.40;;
1358;SDS011;673;48.098;14.422;2024-03-02T03:00:03;136.80;;;73.30;;
1358;SDS011;673;48.098;14.422;2024-03-02T03:02:35;136.07;;;74.80;;
1358;SDS011;673;48.098;14.422;2024-03-02T03:05:06;134.77;;;74.87;;
1358;SDS011;673;48.098;14.422;2024-03-02T03:07:34;143.73;;;77.13;;
1358;SDS011;673;48.098;14.422;2024-03-02T03:10:01;139.87;;;74.23;;
1358;SDS011;673;48.098;14.422;2024-03-02T03:12:29;140.67;;;70.27;;
1358;SDS011;673;48.098;14.422;2024-03-02T03:14:57;132.23;;;63.20;;
1358;SDS011;673;48.098;14.422;2024-03-02T03:17:25;135.33;;;67.40;;
1358;SDS011;673;48.098;14.422;2024-03-02T03:19:52;145.80;;;75.30;;
1358;SDS011;673;48.098;14.422;2024-03-02T03:22:19;136.40;;;69.90;;
1358;SDS011;673;48.098;14.422;2024-03-02T03:24:46;152.00;;;90.70;;
1358;SDS011;673;48.098;14.422;2024-03-02T03:27:13;284.60;;;262.33;;
1358;SDS011;673;48.098;14.422;2024-03-02T03:29:40;904.33;;;555.57;;
1358;SDS011;673;48.098;14.422;2024-03-02T03:32:09;898.47;;;549.70;;
1358;SDS011;673;48.098;14.422;2024-03-02T03:34:36;1999.90;;;999.90;;
1358;SDS011;673;48.098;14.422;2024-03-02T03:37:03;1999.90;;;999.90;;
1358;SDS011;673;48.098;14.422;2024-03-02T03:39:30;1999.90;;;999.90;;
1358;SDS011;673;48.098;14.422;2024-03-02T03:41:57;1999.90;;;999.90;;
1358;SDS011;673;48.098;14.422;2024-03-02T03:44:24;1999.90;;;999.90;;
1358;SDS011;673;48.098;14.422;2024-03-02T03:46:51;1999.90;;;999.90;;
1358;SDS011;673;48.098;14.422;2024-03-02T03:49:19;1999.90;;;999.90;;
1358;SDS011;673;48.098;14.422;2024-03-02T03:51:46;1999.90;;;999.90;;
1358;SDS011;673;48.098;14.422;2024-03-02T03:54:13;1999.90;;;999.90;;
1358;SDS011;673;48.098;14.422;2024-03-02T03:56:40;1999.90;;;999.90;;
1358;SDS011;673;48.098;14.422;2024-03-02T03:59:07;1999.90;;;999.90;;
1358;SDS011;673;48.098;14.422;2024-03-02T04:01:34;1999.90;;;999.90;;
1358;SDS011;673;48.098;14.422;2024-03-02T04:04:01;1999.90;;;999.90;;
1358;SDS011;673;48.098;14.422;2024-03-02T04:06:30;1999.90;;;999.90;;
1358;SDS011;673;48.098;14.422;2024-03-02T04:08:57;1999.90;;;999.90;;
1358;SDS011;673;48.098;14.422;2024-03-02T04:11:24;1999.90;;;999.90;;
1358;SDS011;673;48.098;14.422;2024-03-02T04:13:51;1999.90;;;999.90;;
1358;SDS011;673;48.098;14.422;2024-03-02T04:16:18;1999.90;;;999.90;;
1358;SDS011;673;48.098;14.422;2024-03-02T04:18:45;1999.90;;;999.90;;
1358;SDS011;673;48.098;14.422;2024-03-02T04:21:12;1999.90;;;999.90;;
1358;SDS011;673;48.098;14.422;2024-03-02T04:23:40;1999.90;;;999.90;;
1358;SDS011;673;48.098;14.422;2024-03-02T04:26:07;1999.90;;;999.90;;
1358;SDS011;673;48.098;14.422;2024-03-02T04:28:34;1999.90;;;999.90;;
1358;SDS011;673;48.098;14.422;2024-03-02T04:31:01;1999.90;;;999.90;;
1358;SDS011;673;48.098;14.422;2024-03-02T04:33:28;1999.90;;;999.90;;
1358;SDS011;673;48.098;14.422;2024-03-02T04:35:55;1999.90;;;999.90;;
1358;SDS011;673;48.098;14.422;2024-03-02T04:38:22;1999.90;;;999.90;;
1358;SDS011;673;48.098;14.422;2024-03-02T04:40:51;1999.90;;;999.90;;
1358;SDS011;673;48.098;14.422;2024-03-02T04:43:18;1999.90;;;999.90;;
1358;SDS011;673;48.098;14.422;2024-03-02T04:45:45;1999.90;;;999.90;;
1358;SDS011;673;48.098;14.422;2024-03-02T04:48:12;1999.90;;;999.90;;
1358;SDS011;673;48.098;14.422;2024-03-02T04:50:39;1999.90;;;999.90;;
1358;SDS011;673;48.098;14.422;2024-03-02T04:53:06;1999.90;;;999.90;;
1358;SDS011;673;48.098;14.422;2024-03-02T04:55:33;1999.90;;;999.90;;
1358;SDS011;673;48.098;14.422;2024-03-02T04:58:18;1999.90;;;999.90;;
1358;SDS011;673;48.098;14.422;2024-03-02T05:00:45;1999.90;;;999.90;;
1358;SDS011;673;48.098;14.422;2024-03-02T05:03:12;1999.90;;;999.90;;
1358;SDS011;673;48.098;14.422;2024-03-02T05:05:39;1999.90;;;999.90;;
1358;SDS011;673;48.098;14.422;2024-03-02T05:08:06;1999.90;;;999.90;;
1358;SDS011;673;48.098;14.422;2024-03-02T05:10:33;1999.90;;;999.90;;
1358;SDS011;673;48.098;14.422;2024-03-02T05:13:01;1999.90;;;999.90;;
1358;SDS011;673;48.098;14.422;2024-03-02T05:15:30;1999.90;;;999.90;;
1358;SDS011;673;48.098;14.422;2024-03-02T05:17:57;1999.90;;;999.90;;
1358;SDS011;673;48.098;14.422;2024-03-02T05:20:24;1999.90;;;999.90;;
1358;SDS011;673;48.098;14.422;2024-03-02T05:22:51;1999.90;;;999.90;;
1358;SDS011;673;48.098;14.422;2024-03-02T05:25:18;1999.90;;;999.90;;
1358;SDS011;673;48.098;14.422;2024-03-02T05:27:45;1999.90;;;999.90;;
1358;SDS011;673;48.098;14.422;2024-03-02T05:30:12;1999.90;;;999.90;;
1358;SDS011;673;48.098;14.422;2024-03-02T05:32:41;1999.90;;;999.90;;
1358;SDS011;673;48.098;14.422;2024-03-02T05:35:08;1999.90;;;999.90;;
1358;SDS011;673;48.098;14.422;2024-03-02T05:37:36;1999.90;;;999.90;;
1358;SDS011;673;48.098;14.422;2024-03-02T05:40:04;1999.90;;;999.90;;
1358;SDS011;673;48.098;14.422;2024-03-02T05:42:32;1999.90;;;999.90;;
1358;SDS011;673;48.098;14.422;2024-03-02T05:45:00;1999.90;;;999.90;;
1358;SDS011;673;48.098;14.422;2024-03-02T05:47:27;1999.90;;;999.90;;
1358;SDS011;673;48.098;14.422;2024-03-02T05:49:55;1999.90;;;999.90;;
1358;SDS011;673;48.098;14.422;2024-03-02T05:52:22;1999.90;;;999.90;;
1358;SDS011;673;48.098;14.422;2024-03-02T05:54:50;1999.90;;;999.90;;
1358;SDS011;673;48.098;14.422;2024-03-02T05:57:17;1999.90;;;999.90;;
1358;SDS011;673;48.098;14.422;2024-03-02T05:59:57;1999.90;;;999.90;;
1358;SDS011;673;48.098;14.422;2024-03-02T06:02:25;1999.90;;;999.90;;
1358;SDS011;673;48.098;14.422;2024-03-02T06:04:53;1999.90;;;999.90;;
1358;SDS011;673;48.098;14.422;2024-03-02T06:07:22;1999.90;;;999.90;;
1358;SDS011;673;48.098;14.422;2024-03-02T06:09:49;1999.90;;;999.90;;
1358;SDS011;673;48.098;14.422;2024-03-02T06:12:17;1999.90;;;999.90;;
1358;SDS011;673;48.098;14.422;2024-03-02T06:14:45;1999.90;;;999.90;;
1358;SDS011;673;48.098;14.422;2024-03-02T06:17:12;1999.90;;;999.90;;
1358;SDS011;673;48.098;14.422;2024-03-02T06:19:39;1999.90;;;999.90;;
1358;SDS011;673;48.098;14.422;2024-03-02T06:22:07;1999.90;;;999.90;;
1358;SDS011;673;48.098;14.422;2024-03-02T06:24:35;1999.90;;;999.90;;
1358;SDS011;673;48.098;14.422;2024-03-02T06:27:02;1999.90;;;999.90;;
1358;SDS011;673;48.098;14.422;2024-03-02T06:29:32;1999.90;;;999.90;;
1358;SDS011;673;48.098;14.422;2024-03-02T06:31:58;1999.90;;;999.90;;
1358;SDS011;673;48.098;14.422;2024-03-02T06:34:25;1999.90;;;999.90;;
1358;SDS011;673;48.098;14.422;2024-03-02T06:36:52;1999.90;;;999.90;;
1358;SDS011;673;48.098;14.422;2024-03-02T06:39:20;1999.90;;;999.90;;
1358;SDS011;673;48.098;14.422;2024-03-02T06:41:47;1999.90;;;999.90;;
1358;SDS011;673;48.098;14.422;2024-03-02T06:44:14;1999.90;;;999.90;;
1358;SDS011;673;48.098;14.422;2024-03-02T06:46:41;1999.90;;;999.90;;
1358;SDS011;673;48.098;14.422;2024-03-02T06:49:08;1999.90;;;999.90;;
1358;SDS011;673;48.098;14.422;2024-03-02T06:51:35;1999.90;;;999.90;;
1358;SDS011;673;48.098;14.422;2024-03-02T06:54:02;1999.90;;;999.90;;
1358;SDS011;673;48.098;14.422;2024-03-02T06:56:31;1999.90;;;999.90;;
1358;SDS011;673;48.098;14.422;2024-03-02T06:58:59;1999.90;;;999.90;;
1358;SDS011;673;48.098;14.422;2024-03-02T07:01:26;1999.90;;;999.90;;
1358;SDS011;673;48.098;14.422;2024-03-02T07:03:53;1999.90;;;999.90;;
1358;SDS011;673;48.098;14.422;2024-03-02T07:06:20;1999.90;;;999.90;;
1358;SDS011;673;48.098;14.422;2024-03-02T07:08:47;1999.90;;;999.90;;
1358;SDS011;673;48.098;14.422;2024-03-02T07:11:14;1999.90;;;999.90;;
1358;SDS011;673;48.098;14.422;2024-03-02T07:13:42;1999.90;;;999.90;;
1358;SDS011;673;48.098;14.422;2024-03-02T07:16:09;1999.90;;;999.90;;
1358;SDS011;673;48.098;14.422;2024-03-02T07:18:53;1999.90;;;999.90;;
1358;SDS011;673;48.098;14.422;2024-03-02T07:21:21;1999.90;;;999.90;;
1358;SDS011;673;48.098;14.422;2024-03-02T07:23:48;1999.90;;;999.90;;
1358;SDS011;673;48.098;14.422;2024-03-02T07:26:16;1999.90;;;999.90;;
1358;SDS011;673;48.098;14.422;2024-03-02T07:28:45;1999.90;;;999.90;;
1358;SDS011;673;48.098;14.422;2024-03-02T07:31:13;1999.90;;;999.90;;
1358;SDS011;673;48.098;14.422;2024-03-02T07:33:40;1999.90;;;999.90;;
1358;SDS011;673;48.098;14.422;2024-03-02T07:36:07;1999.90;;;999.90;;
1358;SDS011;673;48.098;14.422;2024-03-02T07:38:34;1999.90;;;999.90;;
1358;SDS011;673;48.098;14.422;2024-03-02T07:41:01;1999.90;;;999.90;;
1358;SDS011;673;48.098;14.422;2024-03-02T07:43:29;1999.90;;;999.90;;
1358;SDS011;673;48.098;14.422;2024-03-02T07:45:59;1999.90;;;999.90;;
1358;SDS011;673;48.098;14.422;2024-03-02T07:48:28;1999.90;;;999.90;;
1358;SDS011;673;48.098;14.422;2024-03-02T07:50:55;1999.90;;;999.90;;
1358;SDS011;673;48.098;14.422;2024-03-02T07:53:22;1999.90;;;999.90;;
1358;SDS011;673;48.098;14.422;2024-03-02T07:55:49;1999.90;;;999.90;;
1358;SDS011;673;48.098;14.422;2024-03-02T07:58:17;1999.90;;;999.90;;
1358;SDS011;673;48.098;14.422;2024-03-02T08:00:44;1999.90;;;999.90;;
1358;SDS011;673;48.098;14.422;2024-03-02T08:03:13;1999.90;;;999.90;;
1358;SDS011;673;48.098;14.422;2024-03-02T08:05:41;1999.90;;;999.90;;
1358;SDS011;673;48.098;14.422;2024-03-02T08:08:08;1999.90;;;999.90;;
1358;SDS011;673;48.098;14.422;2024-03-02T08:10:35;1999.90;;;999.90;;
1358;SDS011;673;48.098;14.422;2024-03-02T08:13:02;1999.90;;;999.90;;
1358;SDS011;673;48.098;14.422;2024-03-02T08:15:29;1999.90;;;999.90;;
1358;SDS011;673;48.098;14.422;2024-03-02T08:17:56;1999.90;;;999.90;;
1358;SDS011;673;48.098;14.422;2024-03-02T08:20:25;1999.90;;;999.90;;
1358;SDS011;673;48.098;14.422;2024-03-02T08:22:52;1999.90;;;999.90;;
1358;SDS011;673;48.098;14.422;2024-03-02T08:25:20;1999.90;;;999.90;;
1358;SDS011;673;48.098;14.422;2024-03-02T08:27:47;1999.90;;;999.90;;
1358;SDS011;673;48.098;14.422;2024-03-02T08:30:14;1999.90;;;999.90;;
1358;SDS011;673;48.098;14.422;2024-03-02T08:32:43;1999.90;;;999.90;;
1358;SDS011;673;48.098;14.422;2024-03-02T08:35:10;1999.90;;;999.90;;
1358;SDS011;673;48.098;14.422;2024-03-02T08:37:38;1999.90;;;999.90;;
1358;SDS011;673;48.098;14.422;2024-03-02T08:40:08;1999.90;;;999.90;;
1358;SDS011;673;48.098;14.422;2024-03-02T08:42:35;1999.90;;;999.90;;
1358;SDS011;673;48.098;14.422;2024-03-02T08:45:02;1999.90;;;999.90;;
1358;SDS011;673;48.098;14.422;2024-03-02T08:47:31;1999.90;;;999.90;;
1358;SDS011;673;48.098;14.422;2024-03-02T08:49:58;1999.90;;;999.90;;
1358;SDS011;673;48.098;14.422;2024-03-02T08:52:25;1999.90;;;999.90;;
1358;SDS011;673;48.098;14.422;2024-03-02T08:54:53;1375.80;;;689.57;;
1358;SDS011;673;48.098;14.422;2024-03-02T08:57:20;126.80;;;80.30;;
1358;SDS011;673;48.098;14.422;2024-03-02T08:59:47;136.90;;;104.73;;
1358;SDS011;673;48.098;14.422;2024-03-02T09:02:14;132.93;;;93.00;;
1358;SDS011;673;48.098;14.422;2024-03-02T09:04:41;124.87;;;85.63;;
1358;SDS011;673;48.098;14.422;2024-03-02T09:07:08;117.33;;;63.83;;
1358;SDS011;673;48.098;14.422;2024-03-02T09:09:35;115.53;;;52.63;;
1358;SDS011;673;48.098;14.422;2024-03-02T09:12:05;122.03;;;64.93;;
1358;SDS011;673;48.098;14.422;2024-03-02T09:14:32;123.77;;;65.87;;
1358;SDS011;673;48.098;14.422;2024-03-02T09:16:59;120.13;;;70.73;;
1358;SDS011;673;48.098;14.422;2024-03-02T09:19:27;120.47;;;78.37;;
1358;SDS011;673;48.098;14.422;2024-03-02T09:21:54;121.00;;;65.53;;
1358;SDS011;673;48.098;14.422;2024-03-02T09:24:22;123.33;;;64.63;;
1358;SDS011;673;48.098;14.422;2024-03-02T09:26:49;121.17;;;59.57;;
1358;SDS011;673;48.098;14.422;2024-03-02T09:29:18;122.20;;;60.20;;
1358;SDS011;673;48.098;14.422;2024-03-02T09:31:45;119.33;;;61.57;;
1358;SDS011;673;48.098;14.422;2024-03-02T09:34:12;125.17;;;58.20;;
1358;SDS011;673;48.098;14.422;2024-03-02T09:36:40;124.23;;;61.53;;
1358;SDS011;673;48.098;14.422;2024-03-02T09:39:07;123.57;;;67.67;;
1358;SDS011;673;48.098;14.422;2024-03-02T09:41:35;124.57;;;60.67;;
1358;SDS011;673;48.098;14.422;2024-03-02T09:44:03;124.47;;;67.30;;
1358;SDS011;673;48.098;14.422;2024-03-02T09:46:32;121.37;;;61.47;;
1358;SDS011;673;48.098;14.422;2024-03-02T09:49:00;138.23;;;100.60;;
1358;SDS011;673;48.098;14.422;2024-03-02T09:51:27;132.00;;;97.63;;
1358;SDS011;673;48.098;14.422;2024-03-02T09:53:54;130.97;;;88.33;;
1358;SDS011;673;48.098;14.422;2024-03-02T09:56:22;123.07;;;78.83;;
1358;SDS011;673;48.098;14.422;2024-03-02T09:58:49;123.57;;;64.23;;
1358;SDS011;673;48.098;14.422;2024-03-02T10:01:17;133.30;;;66.17;;
1358;SDS011;673;48.098;14.422;2024-03-02T10:03:45;127.00;;;64.23;;
1358;SDS011;673;48.098;14.422;2024-03-02T10:06:18;129.13;;;62.70;;
1358;SDS011;673;48.098;14.422;2024-03-02T10:08:46;120.83;;;64.07;;
1358;SDS011;673;48.098;14.422;2024-03-02T10:11:25;121.43;;;61.77;;
1358;SDS011;673;48.098;14.422;2024-03-02T10:14:03;127.13;;;97.63;;
1358;SDS011;673;48.098;14.422;2024-03-02T10:16:33;124.37;;;80.43;;
1358;SDS011;673;48.098;14.422;2024-03-02T10:19:16;118.97;;;52.80;;
1358;SDS011;673;48.098;14.422;2024-03-02T10:21:44;109.90;;;51.13;;
1358;SDS011;673;48.098;14.422;2024-03-02T10:24:11;212.17;;;194.60;;
1358;SDS011;673;48.098;14.422;2024-03-02T10:26:38;120.70;;;74.77;;
1358;SDS011;673;48.098;14.422;2024-03-02T10:29:07;117.90;;;55.63;;
1358;SDS011;673;48.098;14.422;2024-03-02T10:31:35;112.37;;;52.83;;
1358;SDS011;673;48.098;14.422;2024-03-02T10:34:03;116.17;;;58.73;;
1358;SDS011;673;48.098;14.422;2024-03-02T10:36:32;116.63;;;53.53;;
1358;SDS011;673;48.098;14.422;2024-03-02T10:39:01;121.07;;;81.33;;
1358;SDS011;673;48.098;14.422;2024-03-02T10:41:29;108.97;;;49.60;;
1358;SDS011;673;48.098;14.422;2024-03-02T10:44:01;157.80;;;143.03;;
1358;SDS011;673;48.098;14.422;2024-03-02T10:46:30;215.13;;;198.30;;
1358;SDS011;673;48.098;14.422;2024-03-02T10:48:57;135.70;;;121.50;;
1358;SDS011;673;48.098;14.422;2024-03-02T10:51:25;116.07;;;78.43;;
1358;SDS011;673;48.098;14.422;2024-03-02T10:53:58;380.13;;;358.43;;
1358;SDS011;673;48.098;14.422;2024-03-02T10:56:27;313.23;;;293.77;;
1358;SDS011;673;48.098;14.422;2024-03-02T10:58:56;331.47;;;312.03;;
1358;SDS011;673;48.098;14.422;2024-03-02T11:01:29;196.97;;;181.10;;
1358;SDS011;673;48.098;14.422;2024-03-02T11:03:57;139.50;;;124.97;;
1358;SDS011;673;48.098;14.422;2024-03-02T11:06:25;190.17;;;174.47;;
1358;SDS011;673;48.098;14.422;2024-03-02T11:08:58;217.53;;;201.10;;
1358;SDS011;673;48.098;14.422;2024-03-02T11:11:32;331.27;;;311.07;;
1358;SDS011;673;48.098;14.422;2024-03-02T11:14:01;391.07;;;369.93;;
1358;SDS011;673;48.098;14.422;2024-03-02T11:16:34;168.57;;;153.00;;
1358;SDS011;673;48.098;14.422;2024-03-02T11:19:03;183.97;;;168.00;;
1358;SDS011;673;48.098;14.422;2024-03-02T11:21:32;267.23;;;249.97;;
1358;SDS011;673;48.098;14.422;2024-03-02T11:24:01;269.40;;;251.30;;
1358;SDS011;673;48.098;14.422;2024-03-02T11:27:06;277.17;;;259.20;;
1358;SDS011;673;48.098;14.422;2024-03-02T11:29:42;247.57;;;230.80;;
1358;SDS011;673;48.098;14.422;2024-03-02T11:32:14;160.23;;;145.60;;
1358;SDS011;673;48.098;14.422;2024-03-02T11:34:42;120.90;;;106.90;;
1358;SDS011;673;48.098;14.422;2024-03-02T11:37:11;151.00;;;136.83;;
1358;SDS011;673;48.098;14.422;2024-03-02T11:39:41;183.33;;;167.90;;
1358;SDS011;673;48.098;14.422;2024-03-02T11:42:09;195.47;;;180.20;;
1358;SDS011;673;48.098;14.422;2024-03-02T11:44:39;245.60;;;228.27;;
1358;SDS011;673;48.098;14.422;2024-03-02T11:47:09;193.13;;;177.70;;
1358;SDS011;673;48.098;14.422;2024-03-02T11:49:39;207.53;;;191.57;;
1358;SDS011;673;48.098;14.422;2024-03-02T11:52:08;202.33;;;186.93;;
1358;SDS011;673;48.098;14.422;2024-03-02T11:54:36;142.13;;;127.97;;
1358;SDS011;673;48.098;14.422;2024-03-02T11:57:07;175.93;;;160.63;;
1358;SDS011;673;48.098;14.422;2024-03-02T11:59:34;191.03;;;174.43;;
1358;SDS011;673;48.098;14.422;2024-03-02T12:02:01;216.30;;;199.60;;
1358;SDS011;673;48.098;14.422;2024-03-02T12:04:29;129.13;;;115.53;;
1358;SDS011;673;48.098;14.422;2024-03-02T12:06:57;226.77;;;210.23;;
1358;SDS011;673;48.098;14.422;2024-03-02T12:09:26;241.60;;;224.97;;
1358;SDS011;673;48.098;14.422;2024-03-02T12:12:03;131.10;;;117.70;;
1358;SDS011;673;48.098;14.422;2024-03-02T12:14:32;146.97;;;132.03;;
1358;SDS011;673;48.098;14.422;2024-03-02T12:17:00;114.93;;;86.27;;
1358;SDS011;673;48.098;14.422;2024-03-02T12:19:28;192.03;;;176.80;;
1358;SDS011;673;48.098;14.422;2024-03-02T12:21:55;300.63;;;282.63;;
1358;SDS011;673;48.098;14.422;2024-03-02T12:24:23;207.77;;;192.60;;
1358;SDS011;673;48.098;14.422;2024-03-02T12:26:52;232.37;;;215.03;;
1358;SDS011;673;48.098;14.422;2024-03-02T12:29:20;171.57;;;156.50;;
1358;SDS011;673;48.098;14.422;2024-03-02T12:31:49;109.50;;;68.07;;
1358;SDS011;673;48.098;14.422;2024-03-02T12:34:17;151.50;;;137.30;;
1358;SDS011;673;48.098;14.422;2024-03-02T12:36:45;120.40;;;103.00;;
1358;SDS011;673;48.098;14.422;2024-03-02T12:39:17;136.40;;;122.23;;
1358;SDS011;673;48.098;14.422;2024-03-02T12:41:44;129.67;;;113.10;;
1358;SDS011;673;48.098;14.422;2024-03-02T12:44:12;151.23;;;136.67;;
1358;SDS011;673;48.098;14.422;2024-03-02T12:46:39;138.77;;;125.17;;
1358;SDS011;673;48.098;14.422;2024-03-02T12:49:08;125.53;;;112.10;;
1358;SDS011;673;48.098;14.422;2024-03-02T12:51:37;128.27;;;114.63;;
1358;SDS011;673;48.098;14.422;2024-03-02T12:54:05;120.07;;;96.87;;
1358;SDS011;673;48.098;14.422;2024-03-02T12:56:33;118.67;;;86.50;;
1358;SDS011;673;48.098;14.422;2024-03-02T12:59:01;115.27;;;90.07;;
1358;SDS011;673;48.098;14.422;2024-03-02T13:01:28;117.33;;;100.13;;
1358;SDS011;673;48.098;14.422;2024-03-02T13:03:56;112.63;;;90.43;;
1358;SDS011;673;48.098;14.422;2024-03-02T13:06:25;122.30;;;108.70;;
1358;SDS011;673;48.098;14.422;2024-03-02T13:08:54;125.17;;;110.03;;
1358;SDS011;673;48.098;14.422;2024-03-02T13:11:21;139.50;;;125.70;;
1358;SDS011;673;48.098;14.422;2024-03-02T13:13:50;123.17;;;110.17;;
1358;SDS011;673;48.098;14.422;2024-03-02T13:16:18;128.97;;;115.33;;
1358;SDS011;673;48.098;14.422;2024-03-02T13:18:46;129.17;;;113.13;;
1358;SDS011;673;48.098;14.422;2024-03-02T13:21:13;128.40;;;114.77;;
1358;SDS011;673;48.098;14.422;2024-03-02T13:23:41;119.10;;;95.77;;
1358;SDS011;673;48.098;14.422;2024-03-02T13:26:08;112.97;;;85.03;;
1358;SDS011;673;48.098;14.422;2024-03-02T13:28:37;108.50;;;72.17;;
1358;SDS011;673;48.098;14.422;2024-03-02T13:31:04;110.63;;;77.07;;
1358;SDS011;673;48.098;14.422;2024-03-02T13:33:32;106.27;;;70.33;;
1358;SDS011;673;48.098;14.422;2024-03-02T13:35:59;107.70;;;74.23;;
1358;SDS011;673;48.098;14.422;2024-03-02T13:38:26;111.63;;;79.07;;
1358;SDS011;673;48.098;14.422;2024-03-02T13:40:55;116.30;;;94.13;;
1358;SDS011;673;48.098;14.422;2024-03-02T13:43:22;113.23;;;92.30;;
1358;SDS011;673;48.098;14.422;2024-03-02T13:45:49;110.77;;;87.23;;
1358;SDS011;673;48.098;14.422;2024-03-02T13:48:18;120.50;;;100.17;;
1358;SDS011;673;48.098;14.422;2024-03-02T13:50:45;117.77;;;105.07;;
1358;SDS011;673;48.098;14.422;2024-03-02T13:53:12;140.43;;;126.93;;
1358;SDS011;673;48.098;14.422;2024-03-02T13:55:39;107.00;;;60.07;;
1358;SDS011;673;48.098;14.422;2024-03-02T13:58:08;105.37;;;54.20;;
1358;SDS011;673;48.098;14.422;2024-03-02T14:00:35;144.70;;;130.90;;
1358;SDS011;673;48.098;14.422;2024-03-02T14:03:03;124.57;;;111.40;;
1358;SDS011;673;48.098;14.422;2024-03-02T14:05:32;140.17;;;126.13;;
1358;SDS011;673;48.098;14.422;2024-03-02T14:07:59;150.37;;;136.03;;
1358;SDS011;673;48.098;14.422;2024-03-02T14:10:26;137.10;;;123.23;;
1358;SDS011;673;48.098;14.422;2024-03-02T14:12:54;114.20;;;99.20;;
1358;SDS011;673;48.098;14.422;2024-03-02T14:15:23;130.10;;;115.00;;
1358;SDS011;673;48.098;14.422;2024-03-02T14:17:50;119.30;;;102.87;;
1358;SDS011;673;48.098;14.422;2024-03-02T14:20:17;114.50;;;97.57;;
1358;SDS011;673;48.098;14.422;2024-03-02T14:22:47;109.80;;;89.83;;
1358;SDS011;673;48.098;14.422;2024-03-02T14:25:14;116.90;;;104.00;;
1358;SDS011;673;48.098;14.422;2024-03-02T14:27:42;115.27;;;92.13;;
1358;SDS011;673;48.098;14.422;2024-03-02T14:30:10;107.70;;;77.47;;
1358;SDS011;673;48.098;14.422;2024-03-02T14:32:39;113.80;;;100.97;;